createdAt,value
2019-01-11T00:03:44.600Z,64.48
2019-01-11T00:07:48.774Z,63.74
2019-01-11T00:11:53.002Z,63.38
2019-01-11T00:15:57.164Z,63.96
2019-01-11T00:20:03.771Z,64.18
2019-01-11T00:24:07.624Z,64.13
2019-01-11T00:28:11.758Z,64.39
2019-01-11T00:32:15.934Z,64.48
2019-01-11T00:36:20.062Z,64.97
2019-01-11T00:40:24.230Z,65.18
2019-01-11T00:44:28.412Z,65.08
2019-01-11T00:48:32.583Z,65.02
2019-01-11T00:52:36.810Z,65.37
2019-01-11T00:56:40.950Z,64.84
2019-01-11T01:00:45.488Z,65.20
2019-01-11T01:04:49.615Z,64.73
2019-01-11T01:08:53.793Z,64.46
2019-01-11T01:12:58.004Z,64.43
2019-01-11T01:17:02.176Z,64.53
2019-01-11T01:21:06.319Z,63.79
2019-01-11T01:25:11.807Z,64.27
2019-01-11T01:29:16.204Z,64.29
2019-01-11T01:33:20.383Z,64.24
2019-01-11T01:37:24.548Z,64.56
2019-01-11T01:41:28.722Z,64.56
2019-01-11T01:45:32.864Z,63.96
2019-01-11T01:49:37.035Z,63.47
2019-01-11T01:53:41.215Z,64.06
2019-01-11T01:57:45.385Z,64.13
2019-01-11T02:01:49.562Z,64.11
2019-01-11T02:05:53.714Z,64.41
2019-01-11T02:09:57.955Z,64.51
2019-01-11T02:14:02.083Z,64.12
2019-01-11T02:18:06.373Z,64.46
2019-01-11T02:22:10.612Z,64.19
2019-01-11T02:26:14.751Z,64.32
2019-01-11T02:30:23.386Z,64.11
2019-01-11T02:34:27.566Z,64.49
2019-01-11T02:38:32.327Z,64.65
2019-01-11T02:42:36.588Z,64.61
2019-01-11T02:46:40.773Z,64.79
2019-01-11T02:50:44.894Z,64.92
2019-01-11T02:54:49.112Z,65.16
2019-01-11T02:58:53.291Z,65.14
2019-01-11T03:02:57.452Z,65.39
2019-01-11T03:07:01.671Z,65.40
2019-01-11T03:11:05.764Z,65.32
2019-01-11T03:15:10.522Z,65.52
2019-01-11T03:19:14.697Z,65.68
2019-01-11T03:23:18.883Z,65.62
2019-01-11T03:27:23.044Z,65.51
2019-01-11T03:31:34.042Z,65.74
2019-01-11T03:35:38.235Z,65.83
2019-01-11T03:39:42.418Z,66.04
2019-01-11T03:43:46.589Z,66.11
2019-01-11T03:47:50.818Z,66.00
2019-01-11T03:51:54.947Z,66.04
2019-01-11T03:55:59.153Z,66.14
2019-01-11T04:00:03.359Z,66.29
2019-01-11T04:04:07.483Z,66.26
2019-01-11T04:08:11.658Z,66.37
2019-01-11T04:12:15.851Z,66.54
2019-01-11T04:16:20.067Z,66.72
2019-01-11T04:20:24.294Z,66.81
2019-01-11T04:24:30.117Z,66.94
2019-01-11T04:28:34.506Z,67.12
2019-01-11T04:32:38.679Z,67.13
2019-01-11T04:36:42.857Z,67.06
2019-01-11T04:40:47.041Z,67.30
2019-01-11T04:44:51.218Z,67.32
2019-01-11T04:48:55.328Z,67.28
2019-01-11T04:52:59.494Z,67.32
2019-01-11T04:57:03.719Z,67.35
2019-01-11T05:01:07.870Z,67.32
2019-01-11T05:05:12.661Z,67.43
2019-01-11T05:09:16.839Z,67.56
2019-01-11T05:13:39.963Z,67.75
2019-01-11T05:17:44.144Z,67.88
2019-01-11T05:21:48.305Z,67.96
2019-01-11T05:25:52.746Z,68.07
2019-01-11T05:29:56.889Z,68.23
2019-01-11T05:34:01.059Z,68.33
2019-01-11T05:38:05.241Z,68.40
2019-01-11T05:42:09.390Z,68.31
2019-01-11T05:46:13.562Z,68.29
2019-01-11T05:50:24.037Z,68.30
2019-01-11T05:54:25.488Z,68.41
2019-01-11T05:58:30.984Z,68.43
2019-01-11T06:02:35.353Z,68.20
2019-01-11T06:06:57.120Z,68.06
2019-01-11T06:11:01.568Z,68.14
2019-01-11T06:15:06.671Z,67.77
2019-01-11T06:19:10.841Z,67.62
2019-01-11T06:23:15.005Z,67.56
2019-01-11T06:27:19.244Z,67.32
2019-01-11T06:31:23.517Z,67.20
2019-01-11T06:35:27.784Z,67.03
2019-01-11T06:39:32.101Z,67.18
2019-01-11T06:43:36.477Z,66.95
2019-01-11T06:47:40.922Z,67.10
2019-01-11T06:51:45.174Z,66.66
2019-01-11T06:55:49.323Z,66.73
2019-01-11T06:59:53.502Z,66.77
2019-01-11T07:03:57.677Z,66.58
2019-01-11T07:08:01.861Z,66.58
2019-01-11T07:12:06.165Z,65.95
2019-01-11T07:16:10.431Z,66.50
2019-01-11T07:20:14.602Z,66.30
2019-01-11T07:24:18.793Z,66.18
2019-01-11T07:28:22.984Z,66.12
2019-01-11T07:32:27.217Z,65.75
2019-01-11T07:36:34.954Z,65.83
2019-01-11T07:40:39.144Z,65.64
2019-01-11T07:44:43.416Z,65.51
2019-01-11T07:48:47.664Z,65.54
2019-01-11T07:52:51.889Z,65.62
2019-01-11T07:56:58.065Z,65.57
2019-01-11T08:01:02.356Z,64.64
2019-01-11T08:05:07.183Z,65.11
2019-01-11T08:09:11.390Z,64.91
2019-01-11T08:13:16.010Z,64.53
2019-01-11T08:17:20.253Z,64.04
2019-01-11T08:21:24.398Z,64.58
2019-01-11T08:25:28.571Z,64.52
2019-01-11T08:29:33.233Z,63.98
2019-01-11T08:33:37.502Z,64.32
2019-01-11T08:37:41.684Z,63.77
2019-01-11T08:41:45.813Z,64.13
2019-01-11T08:45:50.008Z,63.87
2019-01-11T08:49:54.211Z,64.04
2019-01-11T08:53:58.416Z,66.42
2019-01-11T08:58:02.568Z,65.13
2019-01-11T09:02:06.751Z,64.60
2019-01-11T09:06:11.357Z,63.37
2019-01-11T09:10:22.480Z,63.05
2019-01-11T09:14:39.447Z,64.03
2019-01-11T09:18:53.483Z,63.23
2019-01-11T09:22:57.657Z,62.71
2019-01-11T09:27:01.825Z,64.79
2019-01-11T09:31:06.004Z,62.24
2019-01-11T09:35:10.128Z,62.53
2019-01-11T09:39:14.299Z,61.83
2019-01-11T09:43:18.425Z,61.33
2019-01-11T09:47:22.598Z,60.91
2019-01-11T09:51:26.770Z,61.11
2019-01-11T09:55:30.959Z,60.29
2019-01-11T09:59:35.381Z,59.05
2019-01-11T10:03:39.548Z,59.22
2019-01-11T10:07:43.711Z,58.20
2019-01-11T10:11:47.888Z,58.63
2019-01-11T10:15:52.078Z,58.02
2019-01-11T10:19:56.434Z,57.55
2019-01-11T10:24:00.568Z,58.35
2019-01-11T10:28:04.747Z,56.60
2019-01-11T10:32:09.058Z,56.88
2019-01-11T10:36:13.327Z,58.23
2019-01-11T10:40:18.223Z,56.86
2019-01-11T10:44:22.384Z,55.95
2019-01-11T10:48:26.571Z,56.30
2019-01-11T10:52:30.695Z,56.33
2019-01-11T10:56:34.885Z,55.81
2019-01-11T11:00:39.060Z,56.31
2019-01-11T11:04:43.300Z,56.26
2019-01-11T11:08:47.472Z,55.85
2019-01-11T11:12:51.772Z,55.68
2019-01-11T11:16:56.129Z,54.25
2019-01-11T11:21:00.462Z,54.29
2019-01-11T11:25:06.375Z,55.88
2019-01-11T11:29:10.646Z,55.28
2019-01-11T11:33:14.977Z,54.94
2019-01-11T11:37:19.467Z,55.24
2019-01-11T11:41:23.780Z,54.95
2019-01-11T11:45:28.573Z,54.76
2019-01-11T11:49:32.862Z,53.83
2019-01-11T11:53:37.946Z,54.26
2019-01-11T11:57:42.386Z,53.96
2019-01-11T12:01:46.883Z,54.29
2019-01-11T12:05:51.160Z,53.71
2019-01-11T12:09:57.328Z,53.58
2019-01-11T12:14:01.753Z,52.98
2019-01-11T12:18:06.067Z,53.44
2019-01-11T12:22:10.559Z,53.67
2019-01-11T12:26:14.915Z,53.97
2019-01-11T12:30:19.628Z,53.69
2019-01-11T12:34:24.031Z,54.41
2019-01-11T12:38:28.334Z,53.34
2019-01-11T12:42:32.945Z,52.99
2019-01-11T12:46:37.640Z,52.60
2019-01-11T12:50:42.029Z,52.97
2019-01-11T12:54:46.388Z,52.29
2019-01-11T12:58:50.681Z,53.05
2019-01-11T13:02:55.239Z,53.70
2019-01-11T13:06:59.656Z,52.93
2019-01-11T13:11:03.936Z,52.93
2019-01-11T13:15:10.702Z,53.83
2019-01-11T13:19:15.070Z,54.09
2019-01-11T13:23:19.410Z,54.60
2019-01-11T13:27:23.769Z,54.25
2019-01-11T13:31:28.088Z,54.11
2019-01-11T13:35:32.323Z,54.99
2019-01-11T13:39:37.993Z,55.62
2019-01-11T13:43:43.160Z,55.91
2019-01-11T13:47:47.520Z,56.36
2019-01-11T13:51:51.864Z,56.52
2019-01-11T13:55:56.178Z,56.69
2019-01-11T14:00:00.543Z,56.64
2019-01-11T14:04:04.890Z,57.09
2019-01-11T14:08:09.190Z,57.03
2019-01-11T14:12:13.647Z,56.78
2019-01-11T14:16:18.090Z,56.26
2019-01-11T14:20:22.455Z,56.41
2019-01-11T14:24:29.334Z,56.23
2019-01-11T14:28:35.191Z,55.97
2019-01-11T14:32:39.544Z,56.00
2019-01-11T14:36:46.433Z,56.48
2019-01-11T14:40:54.378Z,56.40
2019-01-11T14:44:58.770Z,56.09
2019-01-11T14:49:03.267Z,56.42
2019-01-11T14:53:08.347Z,56.47
2019-01-11T14:57:12.695Z,57.12
2019-01-11T15:01:17.080Z,57.25
2019-01-11T15:05:23.606Z,57.16
2019-01-11T15:09:27.937Z,57.59
2019-01-11T15:13:32.301Z,57.81
2019-01-11T15:17:38.638Z,57.89
2019-01-11T15:21:43.047Z,57.99
2019-01-11T15:25:48.146Z,58.19
2019-01-11T15:29:52.838Z,58.41
2019-01-11T15:33:57.225Z,58.46
2019-01-11T15:38:01.535Z,58.59
2019-01-11T15:42:05.882Z,58.45
2019-01-11T15:46:15.075Z,58.78
2019-01-11T15:50:36.903Z,58.59
2019-01-11T15:54:41.386Z,58.64
2019-01-11T15:58:45.877Z,58.84
2019-01-11T16:02:50.222Z,59.07
2019-01-11T16:06:54.663Z,59.12
2019-01-11T16:11:30.369Z,59.25
2019-01-11T16:16:16.921Z,59.18
2019-01-11T16:20:21.309Z,59.47
2019-01-11T16:24:26.365Z,59.52
2019-01-11T16:28:31.636Z,59.73
2019-01-11T16:32:46.099Z,59.67
2019-01-11T16:37:03.368Z,59.74
2019-01-11T16:41:07.668Z,59.75
2019-01-11T16:45:13.136Z,59.27
2019-01-11T16:49:25.409Z,59.49
2019-01-11T16:53:29.806Z,59.65
2019-01-11T16:57:34.504Z,59.28
2019-01-11T17:01:39.375Z,59.38
2019-01-11T17:05:43.852Z,59.25
2019-01-11T17:09:48.175Z,59.32
2019-01-11T17:13:52.730Z,59.30
2019-01-11T17:17:57.027Z,59.01
2019-01-11T17:22:01.428Z,59.11
2019-01-11T17:26:05.707Z,58.83
2019-01-11T17:30:16.509Z,59.13
2019-01-11T17:34:21.990Z,58.84
2019-01-11T17:38:26.321Z,58.98
2019-01-11T17:42:30.545Z,58.89
2019-01-11T17:46:34.834Z,59.06
2019-01-11T17:50:39.632Z,58.87
2019-01-11T17:54:44.053Z,58.89
2019-01-11T17:58:48.540Z,59.04
2019-01-11T18:02:53.092Z,59.09
2019-01-11T18:06:57.353Z,58.98
2019-01-11T18:11:01.657Z,59.11
2019-01-11T18:15:11.202Z,59.20
2019-01-11T18:19:15.608Z,59.47
2019-01-11T18:23:20.262Z,59.92
2019-01-11T18:27:24.604Z,60.20
2019-01-11T18:31:29.001Z,60.85
2019-01-11T18:35:33.691Z,61.65
2019-01-11T18:39:37.998Z,62.21
2019-01-11T18:43:42.319Z,63.43
2019-01-11T18:47:46.748Z,63.56
2019-01-11T18:51:51.027Z,64.18
2019-01-11T18:55:55.363Z,65.03
2019-01-11T18:59:59.612Z,64.96
2019-01-11T19:04:04.096Z,64.92
2019-01-11T19:08:08.473Z,64.79
2019-01-11T19:12:12.733Z,64.92
2019-01-11T19:16:17.061Z,64.86
2019-01-11T19:20:23.888Z,64.92
2019-01-11T19:24:28.182Z,64.93
2019-01-11T19:28:32.506Z,65.12
2019-01-11T19:32:36.877Z,65.26
2019-01-11T19:36:41.228Z,65.27
2019-01-11T19:40:45.798Z,66.04
2019-01-11T19:44:50.443Z,66.34
2019-01-11T19:48:54.752Z,66.77
2019-01-11T19:52:59.060Z,67.43
2019-01-11T19:57:03.788Z,68.03
2019-01-11T20:01:08.311Z,68.09
2019-01-11T20:05:13.389Z,69.04
2019-01-11T20:09:17.704Z,68.88
2019-01-11T20:13:22.017Z,70.04
2019-01-11T20:17:26.273Z,69.98
2019-01-11T20:21:30.681Z,70.80
2019-01-11T20:25:34.995Z,71.11
2019-01-11T20:29:39.339Z,71.89
2019-01-11T20:33:43.733Z,72.20
2019-01-11T20:37:48.095Z,72.46
2019-01-11T20:41:52.391Z,72.17
2019-01-11T20:46:02.957Z,72.15
2019-01-11T20:50:03.227Z,72.62
2019-01-11T20:54:07.664Z,72.55
2019-01-11T20:58:12.412Z,73.13
2019-01-11T21:02:17.054Z,73.76
2019-01-11T21:06:21.615Z,73.22
2019-01-11T21:10:26.627Z,73.41
2019-01-11T21:14:31.355Z,73.10
2019-01-11T21:18:36.225Z,73.27
2019-01-11T21:22:40.811Z,73.38
2019-01-11T21:26:45.136Z,73.18
2019-01-11T21:30:49.365Z,73.28
2019-01-11T21:34:55.330Z,73.44
2019-01-11T21:38:59.573Z,73.46
2019-01-11T21:43:04.375Z,73.28
2019-01-11T21:47:09.273Z,73.56
2019-01-11T21:51:13.563Z,73.46
2019-01-11T21:55:17.974Z,73.43
2019-01-11T21:59:22.306Z,73.48
2019-01-11T22:03:26.557Z,73.89
2019-01-11T22:07:30.826Z,74.21
2019-01-11T22:11:35.490Z,74.47
2019-01-11T22:15:40.537Z,74.71
2019-01-11T22:19:44.763Z,75.08
2019-01-11T22:23:49.036Z,75.44
2019-01-11T22:27:53.287Z,75.64
2019-01-11T22:31:57.564Z,75.84
2019-01-11T22:36:01.825Z,75.99
2019-01-11T22:40:08.907Z,76.04
2019-01-11T22:44:13.199Z,75.61
2019-01-11T22:48:17.466Z,75.64
2019-01-11T22:52:21.776Z,75.62
2019-01-11T22:56:26.442Z,75.97
2019-01-11T23:01:08.967Z,76.18
2019-01-11T23:05:14.618Z,75.99
2019-01-11T23:09:21.071Z,76.24
2019-01-11T23:13:25.425Z,76.16
2019-01-11T23:17:59.349Z,76.50
2019-01-11T23:22:03.634Z,76.53
2019-01-11T23:26:07.966Z,76.39
2019-01-11T23:30:15.302Z,76.12
2019-01-11T23:34:19.588Z,75.87
2019-01-11T23:38:23.884Z,75.65
2019-01-11T23:42:28.139Z,75.40
2019-01-11T23:46:32.438Z,75.44
2019-01-11T23:50:36.967Z,75.43
2019-01-11T23:54:41.269Z,75.51
2019-01-11T23:58:45.505Z,75.61
